sensor_id;sensor_type;location;lat;lon;timestamp;P1;durP1;ratioP1;P2;durP2;ratioP2
63282;SDS011;49407;51.388;0.048;2023-01-01T00:02:23;14.63;;;10.95;;
63282;SDS011;49407;51.388;0.048;2023-01-01T00:04:50;16.58;;;12.38;;
63282;SDS011;49407;51.388;0.048;2023-01-01T00:07:17;14.63;;;12.98;;
63282;SDS011;49407;51.388;0.048;2023-01-01T00:09:44;14.30;;;12.85;;
63282;SDS011;49407;51.388;0.048;2023-01-01T00:12:30;18.70;;;13.23;;
63282;SDS011;49407;51.388;0.048;2023-01-01T00:14:57;15.43;;;13.20;;
63282;SDS011;49407;51.388;0.048;2023-01-01T00:17:25;19.17;;;17.17;;
63282;SDS011;49407;51.388;0.048;2023-01-01T00:19:52;22.58;;;20.27;;
63282;SDS011;49407;51.388;0.048;2023-01-01T00:22:19;25.00;;;22.67;;
63282;SDS011;49407;51.388;0.048;2023-01-01T00:25:06;26.88;;;24.30;;
63282;SDS011;49407;51.388;0.048;2023-01-01T00:27:33;29.92;;;27.15;;
63282;SDS011;49407;51.388;0.048;2023-01-01T00:30:00;28.98;;;26.20;;
63282;SDS011;49407;51.388;0.048;2023-01-01T00:32:27;30.70;;;27.65;;
63282;SDS011;49407;51.388;0.048;2023-01-01T00:34:53;37.28;;;33.88;;
63282;SDS011;49407;51.388;0.048;2023-01-01T00:37:20;26.73;;;23.88;;
63282;SDS011;49407;51.388;0.048;2023-01-01T00:39:47;28.40;;;25.95;;
63282;SDS011;49407;51.388;0.048;2023-01-01T00:42:14;30.52;;;27.77;;
63282;SDS011;49407;51.388;0.048;2023-01-01T00:44:41;29.70;;;26.92;;
63282;SDS011;49407;51.388;0.048;2023-01-01T00:47:08;29.05;;;26.67;;
63282;SDS011;49407;51.388;0.048;2023-01-01T00:49:36;26.17;;;23.98;;
63282;SDS011;49407;51.388;0.048;2023-01-01T00:52:03;27.10;;;24.70;;
63282;SDS011;49407;51.388;0.048;2023-01-01T00:54:30;27.00;;;24.80;;
63282;SDS011;49407;51.388;0.048;2023-01-01T00:56:56;27.83;;;25.15;;
63282;SDS011;49407;51.388;0.048;2023-01-01T00:59:23;20.50;;;18.52;;
63282;SDS011;49407;51.388;0.048;2023-01-01T01:01:54;22.02;;;20.15;;
63282;SDS011;49407;51.388;0.048;2023-01-01T01:04:21;20.10;;;18.33;;
63282;SDS011;49407;51.388;0.048;2023-01-01T01:06:48;23.48;;;21.50;;
63282;SDS011;49407;51.388;0.048;2023-01-01T01:09:15;17.42;;;15.93;;
63282;SDS011;49407;51.388;0.048;2023-01-01T01:11:42;16.48;;;14.85;;
63282;SDS011;49407;51.388;0.048;2023-01-01T01:14:09;16.95;;;15.23;;
63282;SDS011;49407;51.388;0.048;2023-01-01T01:16:36;15.40;;;12.60;;
63282;SDS011;49407;51.388;0.048;2023-01-01T01:19:03;15.93;;;13.45;;
63282;SDS011;49407;51.388;0.048;2023-01-01T01:21:31;17.02;;;12.45;;
63282;SDS011;49407;51.388;0.048;2023-01-01T01:24:00;15.18;;;13.68;;
63282;SDS011;49407;51.388;0.048;2023-01-01T01:26:29;19.90;;;16.88;;
63282;SDS011;49407;51.388;0.048;2023-01-01T01:28:58;19.70;;;14.98;;
63282;SDS011;49407;51.388;0.048;2023-01-01T01:31:26;14.30;;;12.27;;
63282;SDS011;49407;51.388;0.048;2023-01-01T01:33:55;18.08;;;13.60;;
63282;SDS011;49407;51.388;0.048;2023-01-01T01:36:23;15.52;;;10.48;;
63282;SDS011;49407;51.388;0.048;2023-01-01T01:38:50;17.60;;;13.00;;
63282;SDS011;49407;51.388;0.048;2023-01-01T01:41:19;19.77;;;12.27;;
63282;SDS011;49407;51.388;0.048;2023-01-01T01:46:31;15.80;;;11.45;;
63282;SDS011;49407;51.388;0.048;2023-01-01T01:49:09;18.10;;;13.18;;
63282;SDS011;49407;51.388;0.048;2023-01-01T01:51:41;13.15;;;11.13;;
63282;SDS011;49407;51.388;0.048;2023-01-01T01:54:09;22.15;;;13.05;;
63282;SDS011;49407;51.388;0.048;2023-01-01T01:59:16;15.57;;;11.27;;
63282;SDS011;49407;51.388;0.048;2023-01-01T02:01:45;17.25;;;13.55;;
63282;SDS011;49407;51.388;0.048;2023-01-01T02:04:12;16.33;;;9.98;;
63282;SDS011;49407;51.388;0.048;2023-01-01T02:06:39;18.83;;;12.75;;
63282;SDS011;49407;51.388;0.048;2023-01-01T02:09:07;19.40;;;11.13;;
63282;SDS011;49407;51.388;0.048;2023-01-01T02:11:35;17.65;;;10.02;;
63282;SDS011;49407;51.388;0.048;2023-01-01T02:14:02;24.05;;;10.80;;
63282;SDS011;49407;51.388;0.048;2023-01-01T02:16:38;22.30;;;11.02;;
63282;SDS011;49407;51.388;0.048;2023-01-01T02:19:42;18.58;;;12.57;;
63282;SDS011;49407;51.388;0.048;2023-01-01T02:25:26;18.67;;;11.52;;
63282;SDS011;49407;51.388;0.048;2023-01-01T02:30:58;21.58;;;15.13;;
63282;SDS011;49407;51.388;0.048;2023-01-01T02:33:26;21.98;;;11.00;;
63282;SDS011;49407;51.388;0.048;2023-01-01T02:35:58;18.70;;;10.77;;
63282;SDS011;49407;51.388;0.048;2023-01-01T02:40:58;19.58;;;10.57;;
63282;SDS011;49407;51.388;0.048;2023-01-01T02:43:28;23.35;;;12.55;;
63282;SDS011;49407;51.388;0.048;2023-01-01T02:45:54;21.20;;;10.02;;
63282;SDS011;49407;51.388;0.048;2023-01-01T02:53:40;14.75;;;9.43;;
63282;SDS011;49407;51.388;0.048;2023-01-01T02:59:09;16.60;;;8.77;;
63282;SDS011;49407;51.388;0.048;2023-01-01T03:07:21;21.40;;;8.95;;
63282;SDS011;49407;51.388;0.048;2023-01-01T03:10:03;22.13;;;10.00;;
63282;SDS011;49407;51.388;0.048;2023-01-01T03:12:40;23.83;;;10.20;;
63282;SDS011;49407;51.388;0.048;2023-01-01T03:18:07;20.90;;;8.82;;
63282;SDS011;49407;51.388;0.048;2023-01-01T03:20:47;16.13;;;9.63;;
63282;SDS011;49407;51.388;0.048;2023-01-01T03:23:18;23.92;;;10.95;;
63282;SDS011;49407;51.388;0.048;2023-01-01T03:25:49;20.00;;;9.90;;
63282;SDS011;49407;51.388;0.048;2023-01-01T03:28:29;23.90;;;10.43;;
63282;SDS011;49407;51.388;0.048;2023-01-01T03:31:00;21.30;;;9.30;;
63282;SDS011;49407;51.388;0.048;2023-01-01T03:33:32;23.67;;;11.65;;
63282;SDS011;49407;51.388;0.048;2023-01-01T03:36:14;20.10;;;8.60;;
63282;SDS011;49407;51.388;0.048;2023-01-01T03:39:23;26.35;;;10.70;;
63282;SDS011;49407;51.388;0.048;2023-01-01T03:41:57;30.15;;;11.80;;
63282;SDS011;49407;51.388;0.048;2023-01-01T03:44:39;24.80;;;13.27;;
63282;SDS011;49407;51.388;0.048;2023-01-01T03:47:14;24.63;;;11.57;;
63282;SDS011;49407;51.388;0.048;2023-01-01T03:49:42;33.47;;;14.95;;
63282;SDS011;49407;51.388;0.048;2023-01-01T03:52:22;26.13;;;11.30;;
63282;SDS011;49407;51.388;0.048;2023-01-01T04:00:24;22.98;;;11.65;;
63282;SDS011;49407;51.388;0.048;2023-01-01T04:02:58;29.33;;;11.25;;
63282;SDS011;49407;51.388;0.048;2023-01-01T04:05:26;22.58;;;12.57;;
63282;SDS011;49407;51.388;0.048;2023-01-01T04:07:55;27.52;;;12.90;;
63282;SDS011;49407;51.388;0.048;2023-01-01T04:10:25;24.95;;;12.43;;
63282;SDS011;49407;51.388;0.048;2023-01-01T04:12:56;24.85;;;13.60;;
63282;SDS011;49407;51.388;0.048;2023-01-01T04:15:25;21.75;;;11.60;;
63282;SDS011;49407;51.388;0.048;2023-01-01T04:17:53;24.85;;;12.80;;
63282;SDS011;49407;51.388;0.048;2023-01-01T04:20:21;27.17;;;11.77;;
63282;SDS011;49407;51.388;0.048;2023-01-01T04:22:48;25.55;;;11.68;;
63282;SDS011;49407;51.388;0.048;2023-01-01T04:25:15;22.52;;;10.98;;
63282;SDS011;49407;51.388;0.048;2023-01-01T04:27:43;23.50;;;13.35;;
63282;SDS011;49407;51.388;0.048;2023-01-01T04:30:10;24.58;;;11.52;;
63282;SDS011;49407;51.388;0.048;2023-01-01T04:32:38;26.25;;;12.05;;
63282;SDS011;49407;51.388;0.048;2023-01-01T04:35:06;25.80;;;11.82;;
63282;SDS011;49407;51.388;0.048;2023-01-01T04:37:35;23.83;;;11.93;;
63282;SDS011;49407;51.388;0.048;2023-01-01T04:40:02;25.85;;;12.40;;
63282;SDS011;49407;51.388;0.048;2023-01-01T04:42:30;25.35;;;14.20;;
63282;SDS011;49407;51.388;0.048;2023-01-01T04:44:57;26.73;;;12.45;;
63282;SDS011;49407;51.388;0.048;2023-01-01T04:47:24;30.63;;;13.38;;
63282;SDS011;49407;51.388;0.048;2023-01-01T04:49:55;35.78;;;13.88;;
63282;SDS011;49407;51.388;0.048;2023-01-01T04:52:22;31.10;;;13.88;;
63282;SDS011;49407;51.388;0.048;2023-01-01T04:54:49;29.65;;;14.18;;
63282;SDS011;49407;51.388;0.048;2023-01-01T04:57:15;34.38;;;16.58;;
63282;SDS011;49407;51.388;0.048;2023-01-01T04:59:44;30.13;;;13.07;;
63282;SDS011;49407;51.388;0.048;2023-01-01T05:02:11;31.55;;;15.30;;
63282;SDS011;49407;51.388;0.048;2023-01-01T05:04:38;36.90;;;16.48;;
63282;SDS011;49407;51.388;0.048;2023-01-01T05:07:05;35.15;;;15.85;;
63282;SDS011;49407;51.388;0.048;2023-01-01T05:09:33;35.00;;;16.58;;
63282;SDS011;49407;51.388;0.048;2023-01-01T05:12:00;28.02;;;15.02;;
63282;SDS011;49407;51.388;0.048;2023-01-01T05:14:26;44.90;;;16.52;;
63282;SDS011;49407;51.388;0.048;2023-01-01T05:16:54;31.95;;;15.15;;
63282;SDS011;49407;51.388;0.048;2023-01-01T05:19:21;33.20;;;14.43;;
63282;SDS011;49407;51.388;0.048;2023-01-01T05:21:48;32.20;;;14.88;;
63282;SDS011;49407;51.388;0.048;2023-01-01T05:24:15;32.50;;;14.90;;
63282;SDS011;49407;51.388;0.048;2023-01-01T05:26:43;30.17;;;18.33;;
63282;SDS011;49407;51.388;0.048;2023-01-01T05:29:13;34.78;;;16.58;;
63282;SDS011;49407;51.388;0.048;2023-01-01T05:31:43;33.88;;;19.42;;
63282;SDS011;49407;51.388;0.048;2023-01-01T05:34:10;30.00;;;16.77;;
63282;SDS011;49407;51.388;0.048;2023-01-01T05:36:38;31.25;;;16.83;;
63282;SDS011;49407;51.388;0.048;2023-01-01T05:39:07;39.40;;;16.90;;
63282;SDS011;49407;51.388;0.048;2023-01-01T05:41:35;31.60;;;16.17;;
63282;SDS011;49407;51.388;0.048;2023-01-01T05:44:03;35.45;;;18.13;;
63282;SDS011;49407;51.388;0.048;2023-01-01T05:46:31;29.20;;;15.30;;
63282;SDS011;49407;51.388;0.048;2023-01-01T05:49:00;27.30;;;13.43;;
63282;SDS011;49407;51.388;0.048;2023-01-01T05:51:27;27.25;;;15.15;;
63282;SDS011;49407;51.388;0.048;2023-01-01T05:53:55;29.40;;;13.43;;
63282;SDS011;49407;51.388;0.048;2023-01-01T05:56:23;24.85;;;11.82;;
63282;SDS011;49407;51.388;0.048;2023-01-01T05:58:51;31.30;;;11.77;;
63282;SDS011;49407;51.388;0.048;2023-01-01T06:01:24;22.42;;;11.55;;
63282;SDS011;49407;51.388;0.048;2023-01-01T06:03:56;26.20;;;11.70;;
63282;SDS011;49407;51.388;0.048;2023-01-01T06:06:25;24.58;;;11.63;;
63282;SDS011;49407;51.388;0.048;2023-01-01T06:09:01;20.75;;;11.77;;
63282;SDS011;49407;51.388;0.048;2023-01-01T06:11:30;30.30;;;12.40;;
63282;SDS011;49407;51.388;0.048;2023-01-01T06:13:58;24.08;;;13.80;;
63282;SDS011;49407;51.388;0.048;2023-01-01T06:16:26;27.95;;;11.55;;
63282;SDS011;49407;51.388;0.048;2023-01-01T06:18:55;22.80;;;12.70;;
63282;SDS011;49407;51.388;0.048;2023-01-01T06:21:23;27.23;;;12.32;;
63282;SDS011;49407;51.388;0.048;2023-01-01T06:23:51;31.00;;;12.95;;
63282;SDS011;49407;51.388;0.048;2023-01-01T06:26:21;30.67;;;13.18;;
63282;SDS011;49407;51.388;0.048;2023-01-01T06:28:50;31.73;;;16.73;;
63282;SDS011;49407;51.388;0.048;2023-01-01T06:31:19;24.08;;;13.55;;
63282;SDS011;49407;51.388;0.048;2023-01-01T06:33:47;30.70;;;14.52;;
63282;SDS011;49407;51.388;0.048;2023-01-01T06:36:16;30.42;;;13.60;;
63282;SDS011;49407;51.388;0.048;2023-01-01T06:38:45;32.42;;;16.65;;
63282;SDS011;49407;51.388;0.048;2023-01-01T06:41:17;26.77;;;14.05;;
63282;SDS011;49407;51.388;0.048;2023-01-01T06:43:46;31.80;;;15.18;;
63282;SDS011;49407;51.388;0.048;2023-01-01T06:46:16;35.33;;;15.30;;
63282;SDS011;49407;51.388;0.048;2023-01-01T06:48:45;31.90;;;14.15;;
63282;SDS011;49407;51.388;0.048;2023-01-01T06:51:22;31.23;;;15.98;;
63282;SDS011;49407;51.388;0.048;2023-01-01T06:53:50;30.00;;;16.67;;
63282;SDS011;49407;51.388;0.048;2023-01-01T06:56:19;29.88;;;14.10;;
63282;SDS011;49407;51.388;0.048;2023-01-01T07:01:52;33.13;;;16.80;;
63282;SDS011;49407;51.388;0.048;2023-01-01T07:04:19;21.63;;;13.27;;
63282;SDS011;49407;51.388;0.048;2023-01-01T07:06:46;30.40;;;13.75;;
63282;SDS011;49407;51.388;0.048;2023-01-01T07:09:13;27.83;;;14.95;;
63282;SDS011;49407;51.388;0.048;2023-01-01T07:11:40;35.58;;;15.77;;
63282;SDS011;49407;51.388;0.048;2023-01-01T07:14:07;31.50;;;12.45;;
63282;SDS011;49407;51.388;0.048;2023-01-01T07:16:34;32.15;;;14.85;;
63282;SDS011;49407;51.388;0.048;2023-01-01T07:19:02;34.22;;;13.68;;
63282;SDS011;49407;51.388;0.048;2023-01-01T07:21:30;35.35;;;13.95;;
63282;SDS011;49407;51.388;0.048;2023-01-01T07:24:17;27.73;;;13.90;;
63282;SDS011;49407;51.388;0.048;2023-01-01T07:26:44;31.92;;;15.43;;
63282;SDS011;49407;51.388;0.048;2023-01-01T07:29:12;33.25;;;14.23;;
63282;SDS011;49407;51.388;0.048;2023-01-01T07:31:40;25.67;;;13.40;;
63282;SDS011;49407;51.388;0.048;2023-01-01T07:34:09;27.70;;;12.85;;
63282;SDS011;49407;51.388;0.048;2023-01-01T07:36:42;36.53;;;12.48;;
63282;SDS011;49407;51.388;0.048;2023-01-01T07:39:09;38.25;;;14.35;;
63282;SDS011;49407;51.388;0.048;2023-01-01T07:41:36;30.42;;;13.80;;
63282;SDS011;49407;51.388;0.048;2023-01-01T07:44:03;24.52;;;13.75;;
63282;SDS011;49407;51.388;0.048;2023-01-01T07:46:32;35.08;;;16.42;;
63282;SDS011;49407;51.388;0.048;2023-01-01T07:49:01;38.72;;;16.02;;
63282;SDS011;49407;51.388;0.048;2023-01-01T07:51:28;30.08;;;14.52;;
63282;SDS011;49407;51.388;0.048;2023-01-01T07:53:55;29.58;;;16.20;;
63282;SDS011;49407;51.388;0.048;2023-01-01T07:56:32;33.53;;;16.90;;
63282;SDS011;49407;51.388;0.048;2023-01-01T07:59:00;37.58;;;18.63;;
63282;SDS011;49407;51.388;0.048;2023-01-01T08:01:26;39.90;;;18.20;;
63282;SDS011;49407;51.388;0.048;2023-01-01T08:03:53;40.92;;;17.70;;
63282;SDS011;49407;51.388;0.048;2023-01-01T08:06:20;30.15;;;17.55;;
63282;SDS011;49407;51.388;0.048;2023-01-01T08:08:48;49.08;;;17.13;;
63282;SDS011;49407;51.388;0.048;2023-01-01T08:11:15;42.80;;;15.43;;
63282;SDS011;49407;51.388;0.048;2023-01-01T08:13:41;39.90;;;17.08;;
63282;SDS011;49407;51.388;0.048;2023-01-01T08:16:08;34.35;;;15.50;;
63282;SDS011;49407;51.388;0.048;2023-01-01T08:18:37;42.50;;;19.63;;
63282;SDS011;49407;51.388;0.048;2023-01-01T08:21:04;40.88;;;17.23;;
63282;SDS011;49407;51.388;0.048;2023-01-01T08:23:31;37.72;;;18.55;;
63282;SDS011;49407;51.388;0.048;2023-01-01T08:26:01;35.63;;;16.25;;
63282;SDS011;49407;51.388;0.048;2023-01-01T08:28:29;37.50;;;16.60;;
63282;SDS011;49407;51.388;0.048;2023-01-01T08:30:56;39.53;;;16.20;;
63282;SDS011;49407;51.388;0.048;2023-01-01T08:33:24;37.85;;;16.15;;
63282;SDS011;49407;51.388;0.048;2023-01-01T08:35:51;35.72;;;17.73;;
63282;SDS011;49407;51.388;0.048;2023-01-01T08:38:20;38.65;;;17.70;;
63282;SDS011;49407;51.388;0.048;2023-01-01T08:40:47;39.90;;;15.88;;
63282;SDS011;49407;51.388;0.048;2023-01-01T08:43:14;34.55;;;16.00;;
63282;SDS011;49407;51.388;0.048;2023-01-01T08:45:41;36.85;;;16.67;;
63282;SDS011;49407;51.388;0.048;2023-01-01T08:48:09;42.78;;;16.45;;
63282;SDS011;49407;51.388;0.048;2023-01-01T08:50:36;41.15;;;15.38;;
63282;SDS011;49407;51.388;0.048;2023-01-01T08:53:03;41.92;;;17.70;;
63282;SDS011;49407;51.388;0.048;2023-01-01T08:55:30;46.75;;;17.42;;
63282;SDS011;49407;51.388;0.048;2023-01-01T08:57:59;35.05;;;14.32;;
63282;SDS011;49407;51.388;0.048;2023-01-01T09:00:25;37.40;;;15.40;;
63282;SDS011;49407;51.388;0.048;2023-01-01T09:02:52;35.38;;;14.07;;
63282;SDS011;49407;51.388;0.048;2023-01-01T09:05:20;32.83;;;14.98;;
63282;SDS011;49407;51.388;0.048;2023-01-01T09:10:32;46.72;;;18.75;;
63282;SDS011;49407;51.388;0.048;2023-01-01T09:12:59;37.65;;;17.25;;
63282;SDS011;49407;51.388;0.048;2023-01-01T09:15:26;38.63;;;15.20;;
63282;SDS011;49407;51.388;0.048;2023-01-01T09:20:58;37.85;;;15.05;;
63282;SDS011;49407;51.388;0.048;2023-01-01T09:23:25;42.22;;;14.48;;
63282;SDS011;49407;51.388;0.048;2023-01-01T09:25:57;40.15;;;16.35;;
63282;SDS011;49407;51.388;0.048;2023-01-01T09:31:20;36.63;;;14.05;;
63282;SDS011;49407;51.388;0.048;2023-01-01T09:33:47;39.53;;;17.02;;
63282;SDS011;49407;51.388;0.048;2023-01-01T09:44:23;37.50;;;16.40;;
63282;SDS011;49407;51.388;0.048;2023-01-01T09:47:04;39.45;;;16.50;;
63282;SDS011;49407;51.388;0.048;2023-01-01T09:49:39;32.88;;;15.60;;
63282;SDS011;49407;51.388;0.048;2023-01-01T09:52:10;35.55;;;14.05;;
63282;SDS011;49407;51.388;0.048;2023-01-01T09:54:40;39.55;;;15.02;;
63282;SDS011;49407;51.388;0.048;2023-01-01T09:57:16;36.90;;;16.52;;
63282;SDS011;49407;51.388;0.048;2023-01-01T09:59:46;35.60;;;15.43;;
63282;SDS011;49407;51.388;0.048;2023-01-01T10:05:26;38.60;;;16.98;;
63282;SDS011;49407;51.388;0.048;2023-01-01T10:11:26;35.72;;;15.65;;
63282;SDS011;49407;51.388;0.048;2023-01-01T10:13:57;36.22;;;18.05;;
63282;SDS011;49407;51.388;0.048;2023-01-01T10:16:36;38.28;;;14.98;;
63282;SDS011;49407;51.388;0.048;2023-01-01T10:21:55;38.53;;;17.90;;
63282;SDS011;49407;51.388;0.048;2023-01-01T10:24:35;39.13;;;14.70;;
63282;SDS011;49407;51.388;0.048;2023-01-01T10:27:12;42.00;;;14.57;;
63282;SDS011;49407;51.388;0.048;2023-01-01T10:29:49;40.42;;;14.60;;
63282;SDS011;49407;51.388;0.048;2023-01-01T10:34:54;40.47;;;13.68;;
63282;SDS011;49407;51.388;0.048;2023-01-01T10:37:22;42.78;;;16.30;;
63282;SDS011;49407;51.388;0.048;2023-01-01T10:39:50;40.63;;;13.55;;
63282;SDS011;49407;51.388;0.048;2023-01-01T10:42:16;33.67;;;12.57;;
63282;SDS011;49407;51.388;0.048;2023-01-01T10:44:43;36.05;;;13.82;;
63282;SDS011;49407;51.388;0.048;2023-01-01T10:47:44;38.58;;;13.95;;
63282;SDS011;49407;51.388;0.048;2023-01-01T10:50:04;32.33;;;13.82;;
63282;SDS011;49407;51.388;0.048;2023-01-01T10:55:20;35.63;;;13.80;;
63282;SDS011;49407;51.388;0.048;2023-01-01T10:57:52;32.90;;;14.45;;
63282;SDS011;49407;51.388;0.048;2023-01-01T11:00:20;29.10;;;12.65;;
63282;SDS011;49407;51.388;0.048;2023-01-01T11:05:35;35.25;;;12.13;;
63282;SDS011;49407;51.388;0.048;2023-01-01T11:08:02;33.10;;;13.40;;
63282;SDS011;49407;51.388;0.048;2023-01-01T11:10:29;40.70;;;14.68;;
63282;SDS011;49407;51.388;0.048;2023-01-01T11:12:57;36.85;;;12.63;;
63282;SDS011;49407;51.388;0.048;2023-01-01T11:15:39;39.67;;;13.95;;
63282;SDS011;49407;51.388;0.048;2023-01-01T11:18:12;34.17;;;12.10;;
63282;SDS011;49407;51.388;0.048;2023-01-01T11:21:05;34.10;;;12.52;;
63282;SDS011;49407;51.388;0.048;2023-01-01T11:23:34;35.47;;;12.73;;
63282;SDS011;49407;51.388;0.048;2023-01-01T11:28:34;37.15;;;12.52;;
63282;SDS011;49407;51.388;0.048;2023-01-01T11:33:32;35.55;;;15.13;;
63282;SDS011;49407;51.388;0.048;2023-01-01T11:36:01;28.73;;;11.82;;
63282;SDS011;49407;51.388;0.048;2023-01-01T11:38:30;31.60;;;13.80;;
63282;SDS011;49407;51.388;0.048;2023-01-01T11:41:05;30.02;;;13.55;;
63282;SDS011;49407;51.388;0.048;2023-01-01T11:43:36;34.97;;;12.85;;
63282;SDS011;49407;51.388;0.048;2023-01-01T11:46:06;33.70;;;12.63;;
63282;SDS011;49407;51.388;0.048;2023-01-01T11:48:40;37.03;;;11.60;;
63282;SDS011;49407;51.388;0.048;2023-01-01T11:51:08;32.72;;;11.20;;
63282;SDS011;49407;51.388;0.048;2023-01-01T11:53:53;30.00;;;11.02;;
63282;SDS011;49407;51.388;0.048;2023-01-01T11:56:46;29.27;;;11.20;;
63282;SDS011;49407;51.388;0.048;2023-01-01T11:59:20;32.97;;;13.00;;
63282;SDS011;49407;51.388;0.048;2023-01-01T12:01:57;35.50;;;12.02;;
63282;SDS011;49407;51.388;0.048;2023-01-01T12:04:33;28.80;;;9.98;;
63282;SDS011;49407;51.388;0.048;2023-01-01T12:07:09;38.13;;;12.13;;
63282;SDS011;49407;51.388;0.048;2023-01-01T12:09:56;30.17;;;10.73;;
63282;SDS011;49407;51.388;0.048;2023-01-01T12:15:19;33.05;;;12.18;;
63282;SDS011;49407;51.388;0.048;2023-01-01T12:21:04;35.70;;;12.70;;
63282;SDS011;49407;51.388;0.048;2023-01-01T12:23:37;33.90;;;13.18;;
63282;SDS011;49407;51.388;0.048;2023-01-01T12:31:50;33.58;;;12.02;;
63282;SDS011;49407;51.388;0.048;2023-01-01T12:34:26;30.47;;;12.93;;
63282;SDS011;49407;51.388;0.048;2023-01-01T12:37:17;27.20;;;10.52;;
63282;SDS011;49407;51.388;0.048;2023-01-01T12:50:57;33.30;;;12.18;;
63282;SDS011;49407;51.388;0.048;2023-01-01T12:59:31;34.60;;;10.60;;
63282;SDS011;49407;51.388;0.048;2023-01-01T13:02:00;29.45;;;12.45;;
63282;SDS011;49407;51.388;0.048;2023-01-01T13:04:35;29.58;;;10.75;;
63282;SDS011;49407;51.388;0.048;2023-01-01T13:07:05;30.48;;;10.35;;
63282;SDS011;49407;51.388;0.048;2023-01-01T13:09:39;34.38;;;10.75;;
63282;SDS011;49407;51.388;0.048;2023-01-01T13:12:11;33.72;;;11.50;;
63282;SDS011;49407;51.388;0.048;2023-01-01T13:14:44;29.70;;;11.95;;
63282;SDS011;49407;51.388;0.048;2023-01-01T13:17:19;32.13;;;10.05;;
63282;SDS011;49407;51.388;0.048;2023-01-01T13:19:48;26.27;;;10.40;;
63282;SDS011;49407;51.388;0.048;2023-01-01T13:38:44;28.00;;;9.80;;
63282;SDS011;49407;51.388;0.048;2023-01-01T13:57:56;31.80;;;13.18;;
63282;SDS011;49407;51.388;0.048;2023-01-01T14:00:31;26.52;;;14.27;;
63282;SDS011;49407;51.388;0.048;2023-01-01T14:03:21;29.55;;;14.82;;
63282;SDS011;49407;51.388;0.048;2023-01-01T14:05:56;20.25;;;10.25;;
63282;SDS011;49407;51.388;0.048;2023-01-01T14:08:31;24.38;;;15.15;;
63282;SDS011;49407;51.388;0.048;2023-01-01T14:11:14;26.15;;;15.10;;
63282;SDS011;49407;51.388;0.048;2023-01-01T14:13:47;27.75;;;18.13;;
63282;SDS011;49407;51.388;0.048;2023-01-01T14:16:13;35.90;;;23.02;;
63282;SDS011;49407;51.388;0.048;2023-01-01T14:18:44;30.58;;;22.98;;
63282;SDS011;49407;51.388;0.048;2023-01-01T14:21:18;43.60;;;28.00;;
63282;SDS011;49407;51.388;0.048;2023-01-01T14:23:50;39.88;;;31.42;;
63282;SDS011;49407;51.388;0.048;2023-01-01T14:26:21;42.00;;;28.27;;
63282;SDS011;49407;51.388;0.048;2023-01-01T14:29:00;37.50;;;30.65;;
63282;SDS011;49407;51.388;0.048;2023-01-01T14:31:34;40.92;;;30.70;;
63282;SDS011;49407;51.388;0.048;2023-01-01T14:34:18;42.17;;;30.15;;
63282;SDS011;49407;51.388;0.048;2023-01-01T14:36:48;56.30;;;35.97;;
63282;SDS011;49407;51.388;0.048;2023-01-01T14:39:24;49.72;;;33.83;;
63282;SDS011;49407;51.388;0.048;2023-01-01T14:41:54;57.35;;;35.65;;
63282;SDS011;49407;51.388;0.048;2023-01-01T14:44:35;56.85;;;34.55;;
63282;SDS011;49407;51.388;0.048;2023-01-01T14:47:04;53.70;;;35.55;;
63282;SDS011;49407;51.388;0.048;2023-01-01T14:49:48;55.53;;;37.22;;
63282;SDS011;49407;51.388;0.048;2023-01-01T14:52:20;51.45;;;40.03;;
63282;SDS011;49407;51.388;0.048;2023-01-01T14:54:53;47.65;;;34.75;;
63282;SDS011;49407;51.388;0.048;2023-01-01T14:57:33;58.53;;;37.90;;
63282;SDS011;49407;51.388;0.048;2023-01-01T15:00:03;54.03;;;36.03;;
63282;SDS011;49407;51.388;0.048;2023-01-01T15:02:53;53.80;;;33.25;;
63282;SDS011;49407;51.388;0.048;2023-01-01T15:05:28;64.32;;;42.65;;
63282;SDS011;49407;51.388;0.048;2023-01-01T15:08:03;55.75;;;35.28;;
63282;SDS011;49407;51.388;0.048;2023-01-01T15:10:32;44.20;;;34.35;;
63282;SDS011;49407;51.388;0.048;2023-01-01T15:13:06;51.40;;;37.10;;
63282;SDS011;49407;51.388;0.048;2023-01-01T15:15:34;48.80;;;35.20;;
63282;SDS011;49407;51.388;0.048;2023-01-01T15:18:33;48.10;;;30.50;;
63282;SDS011;49407;51.388;0.048;2023-01-01T15:20:59;44.80;;;30.42;;
63282;SDS011;49407;51.388;0.048;2023-01-01T15:23:27;50.20;;;34.97;;
63282;SDS011;49407;51.388;0.048;2023-01-01T15:25:54;44.08;;;34.63;;
63282;SDS011;49407;51.388;0.048;2023-01-01T15:28:21;50.17;;;30.70;;
63282;SDS011;49407;51.388;0.048;2023-01-01T15:30:52;51.17;;;33.22;;
63282;SDS011;49407;51.388;0.048;2023-01-01T15:33:20;47.00;;;32.70;;
63282;SDS011;49407;51.388;0.048;2023-01-01T15:35:48;47.83;;;29.52;;
63282;SDS011;49407;51.388;0.048;2023-01-01T15:38:24;62.28;;;29.50;;
63282;SDS011;49407;51.388;0.048;2023-01-01T15:40:55;53.53;;;31.20;;
63282;SDS011;49407;51.388;0.048;2023-01-01T15:43:23;50.08;;;31.20;;
63282;SDS011;49407;51.388;0.048;2023-01-01T15:45:59;54.90;;;34.83;;
63282;SDS011;49407;51.388;0.048;2023-01-01T15:48:49;48.50;;;29.42;;
63282;SDS011;49407;51.388;0.048;2023-01-01T15:51:18;49.35;;;29.98;;
63282;SDS011;49407;51.388;0.048;2023-01-01T15:53:49;45.75;;;30.38;;
63282;SDS011;49407;51.388;0.048;2023-01-01T15:56:29;49.70;;;30.25;;
63282;SDS011;49407;51.388;0.048;2023-01-01T15:59:01;49.33;;;31.75;;
63282;SDS011;49407;51.388;0.048;2023-01-01T16:01:35;45.92;;;27.35;;
63282;SDS011;49407;51.388;0.048;2023-01-01T16:06:54;44.88;;;29.95;;
63282;SDS011;49407;51.388;0.048;2023-01-01T16:09:23;36.58;;;29.92;;
63282;SDS011;49407;51.388;0.048;2023-01-01T16:11:52;29.20;;;22.85;;
63282;SDS011;49407;51.388;0.048;2023-01-01T16:14:20;36.65;;;27.25;;
63282;SDS011;49407;51.388;0.048;2023-01-01T16:16:49;29.35;;;22.10;;
63282;SDS011;49407;51.388;0.048;2023-01-01T16:19:18;26.88;;;19.33;;
63282;SDS011;49407;51.388;0.048;2023-01-01T16:21:47;28.40;;;17.20;;
63282;SDS011;49407;51.388;0.048;2023-01-01T16:24:15;26.73;;;16.30;;
63282;SDS011;49407;51.388;0.048;2023-01-01T16:26:43;29.05;;;18.80;;
63282;SDS011;49407;51.388;0.048;2023-01-01T16:29:11;25.48;;;18.15;;
63282;SDS011;49407;51.388;0.048;2023-01-01T16:31:38;27.58;;;19.58;;
63282;SDS011;49407;51.388;0.048;2023-01-01T16:34:06;24.92;;;15.73;;
63282;SDS011;49407;51.388;0.048;2023-01-01T16:36:34;25.20;;;17.08;;
63282;SDS011;49407;51.388;0.048;2023-01-01T16:39:02;30.10;;;16.90;;
63282;SDS011;49407;51.388;0.048;2023-01-01T16:41:29;20.98;;;17.80;;
63282;SDS011;49407;51.388;0.048;2023-01-01T16:43:55;30.08;;;16.35;;
63282;SDS011;49407;51.388;0.048;2023-01-01T16:46:23;26.27;;;19.30;;
63282;SDS011;49407;51.388;0.048;2023-01-01T16:48:52;25.30;;;17.10;;
63282;SDS011;49407;51.388;0.048;2023-01-01T16:51:23;28.05;;;15.80;;
63282;SDS011;49407;51.388;0.048;2023-01-01T16:53:53;23.83;;;16.90;;
63282;SDS011;49407;51.388;0.048;2023-01-01T16:56:20;25.13;;;20.55;;
63282;SDS011;49407;51.388;0.048;2023-01-01T16:58:49;25.83;;;20.00;;
63282;SDS011;49407;51.388;0.048;2023-01-01T17:01:23;31.88;;;20.55;;
63282;SDS011;49407;51.388;0.048;2023-01-01T17:03:50;23.70;;;19.13;;
63282;SDS011;49407;51.388;0.048;2023-01-01T17:06:17;30.83;;;21.48;;